createdAt,value
2022-09-10T00:01:20.610Z,2.70
2022-09-10T00:03:49.062Z,2.75
2022-09-10T00:06:17.888Z,2.15
2022-09-10T00:08:46.012Z,2.65
2022-09-10T00:11:14.897Z,2.65
2022-09-10T00:13:43.084Z,2.25
2022-09-10T00:16:13.527Z,2.90
2022-09-10T00:18:41.060Z,1.85
2022-09-10T00:21:10.405Z,2.00
2022-09-10T00:23:37.475Z,2.20
2022-09-10T00:26:22.568Z,2.13
2022-09-10T00:28:50.612Z,2.30
2022-09-10T00:31:18.280Z,2.38
2022-09-10T00:33:45.103Z,2.38
2022-09-10T00:36:15.448Z,2.42
2022-09-10T00:38:41.854Z,2.35
2022-09-10T00:41:08.663Z,2.17
2022-09-10T00:43:55.179Z,2.10
2022-09-10T00:46:43.334Z,2.10
2022-09-10T00:49:28.829Z,2.22
2022-09-10T00:51:55.273Z,2.35
2022-09-10T00:54:25.059Z,2.58
2022-09-10T00:56:54.954Z,2.15
2022-09-10T00:59:26.167Z,2.40
2022-09-10T01:01:53.013Z,1.90
2022-09-10T01:04:20.038Z,2.00
2022-09-10T01:06:47.119Z,2.20
2022-09-10T01:09:14.385Z,2.63
2022-09-10T01:12:08.862Z,2.90
2022-09-10T01:14:54.708Z,2.65
2022-09-10T01:17:37.335Z,2.42
2022-09-10T01:20:41.006Z,2.90
2022-09-10T01:23:26.838Z,2.92
2022-09-10T01:26:11.763Z,2.70
2022-09-10T01:29:23.379Z,2.38
2022-09-10T01:31:55.521Z,2.70
2022-09-10T01:34:29.794Z,2.33
2022-09-10T01:37:03.791Z,2.50
2022-09-10T01:39:30.601Z,2.67
2022-09-10T01:41:59.013Z,2.63
2022-09-10T01:44:49.602Z,2.63
2022-09-10T01:47:45.896Z,2.22
2022-09-10T01:50:48.236Z,2.58
2022-09-10T01:53:44.770Z,2.55
2022-09-10T01:56:35.621Z,2.67
2022-09-10T01:59:34.453Z,2.60
2022-09-10T02:02:10.011Z,2.95
2022-09-10T02:04:37.631Z,2.80
2022-09-10T02:07:06.887Z,3.47
2022-09-10T02:09:33.568Z,2.65
2022-09-10T02:12:00.039Z,2.70
2022-09-10T02:14:49.767Z,2.70
2022-09-10T02:17:26.678Z,3.35
2022-09-10T02:19:54.377Z,2.47
2022-09-10T02:22:23.803Z,2.53
2022-09-10T02:24:51.551Z,2.25
2022-09-10T02:27:18.119Z,2.78
2022-09-10T02:29:44.658Z,2.72
2022-09-10T02:32:11.206Z,2.83
2022-09-10T02:34:37.684Z,2.20
2022-09-10T02:37:04.186Z,2.38
2022-09-10T02:39:30.965Z,2.55
2022-09-10T02:41:58.639Z,3.13
2022-09-10T02:44:28.190Z,2.30
2022-09-10T02:46:55.328Z,2.35
2022-09-10T02:49:21.832Z,2.75
2022-09-10T02:51:50.457Z,1.90
2022-09-10T02:54:19.931Z,1.95
2022-09-10T02:56:49.772Z,2.17
2022-09-10T02:59:17.889Z,2.22
2022-09-10T03:01:44.424Z,1.98
2022-09-10T03:04:11.004Z,2.00
2022-09-10T03:06:38.216Z,2.00
2022-09-10T03:09:04.691Z,2.85
2022-09-10T03:11:31.591Z,2.63
2022-09-10T03:13:58.508Z,2.28
2022-09-10T03:16:25.532Z,2.28
2022-09-10T03:18:52.290Z,2.38
2022-09-10T03:21:22.089Z,2.33
2022-09-10T03:23:50.488Z,2.80
2022-09-10T03:26:25.194Z,3.15
2022-09-10T03:28:52.507Z,2.47
2022-09-10T03:31:21.667Z,2.78
2022-09-10T03:33:51.031Z,2.55
2022-09-10T03:36:18.218Z,2.47
2022-09-10T03:38:45.771Z,3.30
2022-09-10T03:41:12.488Z,2.70
2022-09-10T03:43:39.116Z,3.42
2022-09-10T03:46:08.649Z,3.05
2022-09-10T03:48:39.644Z,3.47
2022-09-10T03:51:07.751Z,2.72
2022-09-10T03:53:34.644Z,2.95
2022-09-10T03:56:01.811Z,3.20
2022-09-10T03:58:28.666Z,2.83
2022-09-10T04:00:55.128Z,2.70
2022-09-10T04:03:22.230Z,2.58
2022-09-10T04:05:48.642Z,2.70
2022-09-10T04:08:15.337Z,3.03
2022-09-10T04:10:43.995Z,2.55
2022-09-10T04:13:11.338Z,3.35
2022-09-10T04:15:38.364Z,2.50
2022-09-10T04:18:06.043Z,2.63
2022-09-10T04:20:33.159Z,2.30
2022-09-10T04:23:05.657Z,2.50
2022-09-10T04:25:34.474Z,2.40
2022-09-10T04:28:01.863Z,2.15
2022-09-10T04:30:29.284Z,2.30
2022-09-10T04:32:55.800Z,2.40
2022-09-10T04:35:22.297Z,2.17
2022-09-10T04:37:48.935Z,2.33
2022-09-10T04:40:15.684Z,2.35
2022-09-10T04:42:42.263Z,1.75
2022-09-10T04:45:09.671Z,1.73
2022-09-10T04:47:36.197Z,1.50
2022-09-10T04:50:03.496Z,1.80
2022-09-10T04:52:29.996Z,1.30
2022-09-10T04:54:56.984Z,1.98
2022-09-10T04:57:25.913Z,1.88
2022-09-10T04:59:53.994Z,2.60
2022-09-10T05:02:21.359Z,3.33
2022-09-10T05:04:47.916Z,2.35
2022-09-10T05:07:14.852Z,2.90
2022-09-10T05:09:42.077Z,2.50
2022-09-10T05:12:08.504Z,3.05
2022-09-10T05:14:34.976Z,3.28
2022-09-10T05:17:03.203Z,2.70
2022-09-10T05:19:30.472Z,2.47
2022-09-10T05:22:02.726Z,2.45
2022-09-10T05:24:31.898Z,2.90
2022-09-10T05:26:59.528Z,2.60
2022-09-10T05:29:26.021Z,2.97
2022-09-10T05:31:52.554Z,3.35
2022-09-10T05:34:19.078Z,3.22
2022-09-10T05:36:45.544Z,2.53
2022-09-10T05:39:11.949Z,2.42
2022-09-10T05:41:38.475Z,2.53
2022-09-10T05:44:05.306Z,3.08
2022-09-10T05:46:32.983Z,2.53
2022-09-10T05:49:07.299Z,2.55
2022-09-10T05:51:34.340Z,2.45
2022-09-10T05:54:02.984Z,2.83
2022-09-10T05:56:31.740Z,2.33
2022-09-10T05:58:58.380Z,2.47
2022-09-10T06:01:25.624Z,2.17
2022-09-10T06:03:52.433Z,2.33
2022-09-10T06:06:19.573Z,2.13
2022-09-10T06:08:56.460Z,2.35
2022-09-10T06:11:34.361Z,2.03
2022-09-10T06:14:01.604Z,2.25
2022-09-10T06:16:28.379Z,2.10
2022-09-10T06:18:56.928Z,2.60
2022-09-10T06:21:28.302Z,1.65
2022-09-10T06:23:56.486Z,1.77
2022-09-10T06:26:25.558Z,2.03
2022-09-10T06:28:56.732Z,1.48
2022-09-10T06:31:23.530Z,2.60
2022-09-10T06:33:51.270Z,1.50
2022-09-10T06:36:20.531Z,1.98
2022-09-10T06:38:49.512Z,1.60
2022-09-10T06:41:17.068Z,1.33
2022-09-10T06:43:52.943Z,1.60
2022-09-10T06:49:19.398Z,1.85
2022-09-10T06:51:50.034Z,1.95
2022-09-10T06:54:17.662Z,1.88
2022-09-10T06:56:46.859Z,2.15
2022-09-10T06:59:14.721Z,1.95
2022-09-10T07:01:47.567Z,2.10
2022-09-10T07:04:14.798Z,1.60
2022-09-10T07:06:41.715Z,1.60
2022-09-10T07:09:10.783Z,2.15
2022-09-10T07:11:46.110Z,2.47
2022-09-10T07:14:14.137Z,2.03
2022-09-10T07:16:44.645Z,1.75
2022-09-10T07:19:17.341Z,1.48
2022-09-10T07:21:44.985Z,1.92
2022-09-10T07:24:14.422Z,1.83
2022-09-10T07:26:59.390Z,1.67
2022-09-10T07:29:25.959Z,1.95
2022-09-10T07:31:53.486Z,2.00
2022-09-10T07:34:23.054Z,1.60
2022-09-10T07:36:49.632Z,1.60
2022-09-10T07:39:21.304Z,1.30
2022-09-10T07:41:50.183Z,1.70
2022-09-10T07:44:19.665Z,1.50
2022-09-10T07:46:47.768Z,1.73
2022-09-10T07:49:16.174Z,1.90
2022-09-10T07:51:46.430Z,1.30
2022-09-10T07:54:15.896Z,1.90
2022-09-10T07:56:46.433Z,1.60
2022-09-10T07:59:15.123Z,1.40
2022-09-10T08:01:46.824Z,1.73
2022-09-10T08:04:16.175Z,1.55
2022-09-10T08:06:42.882Z,1.35
2022-09-10T08:09:09.414Z,1.55
2022-09-10T08:11:41.353Z,1.55
2022-09-10T08:14:10.873Z,1.20
2022-09-10T08:16:40.212Z,1.60
2022-09-10T08:19:13.851Z,1.58
2022-09-10T08:21:40.899Z,1.75
2022-09-10T08:24:08.652Z,2.03
2022-09-10T08:26:35.686Z,1.25
2022-09-10T08:29:04.415Z,1.45
2022-09-10T08:31:31.293Z,1.40
2022-09-10T08:34:06.658Z,1.90
2022-09-10T08:36:35.386Z,1.55
2022-09-10T08:39:06.290Z,1.52
2022-09-10T08:41:40.931Z,1.17
2022-09-10T08:44:29.007Z,1.40
2022-09-10T08:47:04.386Z,1.95
2022-09-10T08:49:42.189Z,1.13
2022-09-10T08:52:34.384Z,1.45
2022-09-10T08:55:04.397Z,1.88
2022-09-10T08:57:41.923Z,1.25
2022-09-10T09:00:14.836Z,1.55
2022-09-10T09:02:57.770Z,1.42
2022-09-10T09:05:28.533Z,1.48
2022-09-10T09:10:50.116Z,1.38
2022-09-10T09:13:32.143Z,1.00
2022-09-10T09:16:12.873Z,1.58
2022-09-10T09:19:11.155Z,1.20
2022-09-10T09:21:46.825Z,1.65
2022-09-10T09:24:48.807Z,1.27
2022-09-10T09:27:17.989Z,1.33
2022-09-10T09:29:59.363Z,1.58
2022-09-10T09:32:28.716Z,1.52
2022-09-10T09:35:09.561Z,1.38
2022-09-10T09:37:37.870Z,1.23
2022-09-10T09:40:13.438Z,1.35
2022-09-10T09:42:54.100Z,1.33
2022-09-10T09:45:37.714Z,1.73
2022-09-10T09:48:06.583Z,1.10
2022-09-10T09:50:38.748Z,1.23
2022-09-10T09:53:05.184Z,1.30
2022-09-10T09:55:47.221Z,1.85
2022-09-10T09:58:24.089Z,1.45
2022-09-10T10:00:55.047Z,1.15
2022-09-10T10:03:29.062Z,1.88
2022-09-10T10:06:03.548Z,1.38
2022-09-10T10:08:34.054Z,1.60
2022-09-10T10:11:00.555Z,1.85
2022-09-10T10:13:38.994Z,1.63
2022-09-10T10:16:16.363Z,1.40
2022-09-10T10:18:44.124Z,1.70
2022-09-10T10:21:15.035Z,2.30
2022-09-10T10:23:41.944Z,1.60
2022-09-10T10:26:20.323Z,1.70
2022-09-10T10:28:50.304Z,2.05
2022-09-10T10:31:18.149Z,1.50
2022-09-10T10:34:03.488Z,2.10
2022-09-10T10:36:58.339Z,1.58
2022-09-10T10:39:55.426Z,1.63
2022-09-10T10:42:31.826Z,1.20
2022-09-10T10:45:18.255Z,1.50
2022-09-10T10:47:51.719Z,1.58
2022-09-10T10:50:28.558Z,1.40
2022-09-10T10:53:09.367Z,1.67
2022-09-10T10:55:45.279Z,1.80
2022-09-10T10:58:24.383Z,1.73
2022-09-10T11:00:57.596Z,1.83
2022-09-10T11:03:36.255Z,2.58
2022-09-10T11:06:10.759Z,1.60
2022-09-10T11:08:50.807Z,2.05
2022-09-10T11:11:23.895Z,1.63
2022-09-10T11:14:19.608Z,1.45
2022-09-10T11:16:55.316Z,1.30
2022-09-10T11:19:36.893Z,1.75
2022-09-10T11:22:13.980Z,1.60
2022-09-10T11:24:47.492Z,1.40
2022-09-10T11:27:29.860Z,1.60
2022-09-10T11:30:03.902Z,1.40
2022-09-10T11:32:38.242Z,1.40
2022-09-10T11:35:26.704Z,1.63
2022-09-10T11:38:20.610Z,1.55
2022-09-10T11:41:00.354Z,1.30
2022-09-10T11:43:43.532Z,1.25
2022-09-10T11:46:15.262Z,1.05
2022-09-10T11:49:03.588Z,1.00
2022-09-10T11:51:34.117Z,1.25
2022-09-10T11:54:03.590Z,1.23
2022-09-10T11:56:50.892Z,1.00
2022-09-10T11:59:27.088Z,1.30
2022-09-10T12:02:32.710Z,1.13
2022-09-10T12:05:07.748Z,1.35
2022-09-10T12:07:59.423Z,1.48
2022-09-10T12:10:35.319Z,1.20
2022-09-10T12:13:09.338Z,1.00
2022-09-10T12:15:37.775Z,1.15
2022-09-10T12:18:15.363Z,1.13
2022-09-10T12:20:52.283Z,0.95
2022-09-10T12:23:28.107Z,0.93
2022-09-10T12:25:59.810Z,1.05
2022-09-10T12:28:41.790Z,1.00
2022-09-10T12:31:10.610Z,1.80
2022-09-10T12:33:46.145Z,1.15
2022-09-10T12:36:14.836Z,1.35
2022-09-10T12:39:19.944Z,1.23
2022-09-10T12:41:46.279Z,1.13
2022-09-10T12:44:34.933Z,1.05
2022-09-10T12:47:28.884Z,1.30
2022-09-10T12:50:01.146Z,1.30
2022-09-10T12:52:45.108Z,1.30
2022-09-10T12:55:49.191Z,1.20
2022-09-10T12:58:43.840Z,2.08
2022-09-10T13:01:37.248Z,1.38
2022-09-10T13:04:03.886Z,1.30
2022-09-10T13:06:40.274Z,1.40
2022-09-10T13:09:19.883Z,1.20
2022-09-10T13:11:51.954Z,1.63
2022-09-10T13:14:28.899Z,1.23
2022-09-10T13:16:55.457Z,1.48
2022-09-10T13:19:21.788Z,1.48
2022-09-10T13:21:48.193Z,1.30
2022-09-10T13:24:33.813Z,1.20
2022-09-10T13:27:04.703Z,1.30
2022-09-10T13:29:38.401Z,1.10
2022-09-10T13:32:15.131Z,1.17
2022-09-10T13:35:08.291Z,1.10
2022-09-10T13:38:09.929Z,1.25
2022-09-10T13:41:02.585Z,0.98
2022-09-10T13:43:48.618Z,1.10
2022-09-10T13:46:28.279Z,1.10
2022-09-10T13:49:09.797Z,1.00
2022-09-10T13:51:54.172Z,0.98
2022-09-10T13:54:31.454Z,1.00
2022-09-10T13:57:04.457Z,1.10
2022-09-10T13:59:34.042Z,0.80
2022-09-10T14:02:00.461Z,1.30
2022-09-10T14:04:41.988Z,1.20
2022-09-10T14:07:26.890Z,1.17
2022-09-10T14:09:59.922Z,0.82
2022-09-10T14:12:35.685Z,0.90
2022-09-10T14:15:06.428Z,0.82
2022-09-10T14:20:23.508Z,0.90
2022-09-10T14:22:58.738Z,1.23
2022-09-10T14:25:32.687Z,1.35
2022-09-10T14:28:20.677Z,1.20
2022-09-10T14:30:48.885Z,1.05
2022-09-10T14:33:32.298Z,2.30
2022-09-10T14:36:13.686Z,1.90
2022-09-10T14:38:42.415Z,1.90
2022-09-10T14:41:24.606Z,1.80
2022-09-10T14:44:15.561Z,1.92
2022-09-10T14:46:57.453Z,1.20
2022-09-10T14:49:29.688Z,1.52
2022-09-10T14:51:58.427Z,1.48
2022-09-10T14:54:26.335Z,1.40
2022-09-10T14:56:54.130Z,1.58
2022-09-10T14:59:38.760Z,1.38
2022-09-10T15:02:16.367Z,1.50
2022-09-10T15:04:42.856Z,1.20
2022-09-10T15:07:13.630Z,1.40
2022-09-10T15:09:40.927Z,1.20
2022-09-10T15:12:28.241Z,1.30
2022-09-10T15:14:55.138Z,1.40
2022-09-10T15:17:21.539Z,1.27
2022-09-10T15:19:48.591Z,1.77
2022-09-10T15:22:29.766Z,1.40
2022-09-10T15:25:12.304Z,1.98
2022-09-10T15:27:38.900Z,1.48
2022-09-10T15:30:06.267Z,1.88
2022-09-10T15:32:32.699Z,1.63
2022-09-10T15:34:59.159Z,2.33
2022-09-10T15:37:25.583Z,1.60
2022-09-10T15:39:52.724Z,2.05
2022-09-10T15:42:19.150Z,1.90
2022-09-10T15:44:45.538Z,2.13
2022-09-10T15:47:11.942Z,2.28
2022-09-10T15:49:38.352Z,2.03
2022-09-10T15:52:04.903Z,2.00
2022-09-10T15:54:31.290Z,2.30
2022-09-10T15:56:59.157Z,2.00
2022-09-10T15:59:25.538Z,2.60
2022-09-10T16:01:51.970Z,2.50
2022-09-10T16:04:18.371Z,2.35
2022-09-10T16:06:44.761Z,1.95
2022-09-10T16:09:12.997Z,1.90
2022-09-10T16:11:41.758Z,2.00
2022-09-10T16:14:11.815Z,2.00
2022-09-10T16:16:39.050Z,1.95
2022-09-10T16:19:05.872Z,2.05
2022-09-10T16:21:36.347Z,2.13
2022-09-10T16:24:04.623Z,1.85
2022-09-10T16:26:37.099Z,2.53
2022-09-10T16:29:12.497Z,2.22
2022-09-10T16:31:41.847Z,2.38
2022-09-10T16:34:11.556Z,2.50
2022-09-10T16:36:39.156Z,2.38
2022-09-10T16:39:12.125Z,2.20
2022-09-10T16:41:49.071Z,2.15
2022-09-10T16:44:17.462Z,2.33
2022-09-10T16:46:44.616Z,2.72
2022-09-10T16:49:15.107Z,2.70
2022-09-10T16:51:42.993Z,2.17
2022-09-10T16:54:09.485Z,2.47
2022-09-10T16:56:39.571Z,2.03
2022-09-10T16:59:07.912Z,2.03
2022-09-10T17:01:35.991Z,2.30
2022-09-10T17:04:03.640Z,2.47
2022-09-10T17:06:31.190Z,2.28
2022-09-10T17:08:59.562Z,3.70
2022-09-10T17:11:31.324Z,3.50
2022-09-10T17:13:59.230Z,5.13
2022-09-10T17:16:30.528Z,6.55
2022-09-10T17:19:04.335Z,6.50
2022-09-10T17:21:32.181Z,5.15
2022-09-10T17:23:59.254Z,4.00
2022-09-10T17:26:27.085Z,3.63
2022-09-10T17:28:58.668Z,2.90
2022-09-10T17:31:27.362Z,2.70
2022-09-10T17:33:53.869Z,2.35
2022-09-10T17:36:20.429Z,2.90
2022-09-10T17:38:47.276Z,4.25
2022-09-10T17:41:14.549Z,5.25
2022-09-10T17:43:42.924Z,5.13
2022-09-10T17:46:12.632Z,5.38
2022-09-10T17:48:39.186Z,4.03
2022-09-10T17:51:06.371Z,5.00
2022-09-10T17:53:34.232Z,4.53
2022-09-10T17:56:06.363Z,3.78
2022-09-10T17:58:33.544Z,3.70
2022-09-10T18:01:01.979Z,3.72
2022-09-10T18:03:28.921Z,3.90
2022-09-10T18:05:56.896Z,3.47
2022-09-10T18:08:23.291Z,3.10
2022-09-10T18:10:50.778Z,4.07
2022-09-10T18:13:19.394Z,3.40
2022-09-10T18:15:48.789Z,3.47
2022-09-10T18:18:15.472Z,5.03
2022-09-10T18:20:42.931Z,4.22
2022-09-10T18:23:09.733Z,3.20
2022-09-10T18:25:36.127Z,3.53
2022-09-10T18:28:03.098Z,3.13
2022-09-10T18:30:30.071Z,3.75
2022-09-10T18:32:56.505Z,3.25
2022-09-10T18:35:23.020Z,3.50
2022-09-10T18:37:52.579Z,3.03
2022-09-10T18:40:19.565Z,3.47
2022-09-10T18:42:47.678Z,2.80
2022-09-10T18:45:14.118Z,3.20
2022-09-10T18:47:44.975Z,3.88
2022-09-10T18:50:13.144Z,3.08
2022-09-10T18:52:39.629Z,3.50
2022-09-10T18:55:06.495Z,2.70
2022-09-10T18:57:32.951Z,3.35
2022-09-10T19:00:00.319Z,3.38
2022-09-10T19:02:27.351Z,4.70
2022-09-10T19:05:10.686Z,4.15
2022-09-10T19:07:38.160Z,3.72
2022-09-10T19:10:06.899Z,3.63
2022-09-10T19:12:33.583Z,4.00
2022-09-10T19:15:00.436Z,4.07
2022-09-10T19:17:26.839Z,4.32
2022-09-10T19:19:53.261Z,4.43
2022-09-10T19:22:19.668Z,4.32
2022-09-10T19:24:55.765Z,5.55
2022-09-10T19:27:23.963Z,5.22
2022-09-10T19:29:50.617Z,6.65
2022-09-10T19:32:19.433Z,6.47
2022-09-10T19:34:45.968Z,6.47
2022-09-10T19:37:12.877Z,6.07
2022-09-10T19:39:39.375Z,6.72
2022-09-10T19:42:06.753Z,6.90
2022-09-10T19:44:33.668Z,6.43
2022-09-10T19:47:00.144Z,6.20
2022-09-10T19:49:26.528Z,5.47
2022-09-10T19:51:54.104Z,4.80
2022-09-10T19:54:21.287Z,4.90
2022-09-10T19:56:47.676Z,5.43
2022-09-10T19:59:14.526Z,4.13
2022-09-10T20:01:42.604Z,4.43
2022-09-10T20:04:11.354Z,4.53
2022-09-10T20:06:38.829Z,5.50
2022-09-10T20:09:06.651Z,5.20
2022-09-10T20:11:35.035Z,5.47
2022-09-10T20:14:13.373Z,5.00
2022-09-10T20:16:43.213Z,4.38
2022-09-10T20:19:12.359Z,4.25
2022-09-10T20:21:38.891Z,4.57
2022-09-10T20:24:08.510Z,4.18
2022-09-10T20:26:43.735Z,5.45
2022-09-10T20:29:12.532Z,4.03
2022-09-10T20:31:41.229Z,4.53
2022-09-10T20:34:11.278Z,4.88
2022-09-10T20:36:43.642Z,4.68
2022-09-10T20:39:13.542Z,4.55
2022-09-10T20:41:40.209Z,5.00
2022-09-10T20:44:06.718Z,4.90
2022-09-10T20:46:34.381Z,4.70
2022-09-10T20:49:03.051Z,4.63
2022-09-10T20:51:35.112Z,4.70
2022-09-10T20:54:02.912Z,4.50
2022-09-10T20:56:29.370Z,5.28
2022-09-10T20:58:55.751Z,4.78
2022-09-10T21:01:24.965Z,4.95
2022-09-10T21:03:53.501Z,5.55
2022-09-10T21:06:24.352Z,6.15
2022-09-10T21:08:51.656Z,6.07
2022-09-10T21:11:20.638Z,5.45
2022-09-10T21:13:48.250Z,5.53
2022-09-10T21:16:29.660Z,5.28
2022-09-10T21:19:07.449Z,6.22
2022-09-10T21:21:35.528Z,5.65
2022-09-10T21:24:05.242Z,5.90
2022-09-10T21:26:34.259Z,5.38
2022-09-10T21:29:04.763Z,4.72
2022-09-10T21:31:31.723Z,4.40
2022-09-10T21:34:03.010Z,4.63
2022-09-10T21:36:31.389Z,5.25
2022-09-10T21:39:00.408Z,6.65
2022-09-10T21:41:31.649Z,5.68
2022-09-10T21:43:59.924Z,6.85
2022-09-10T21:46:27.503Z,6.47
2022-09-10T21:48:54.003Z,6.32
2022-09-10T21:51:21.762Z,6.50
2022-09-10T21:53:51.582Z,6.55
2022-09-10T21:56:18.030Z,5.85
2022-09-10T21:58:45.842Z,5.32
2022-09-10T22:01:15.584Z,5.35
2022-09-10T22:03:41.999Z,5.00
2022-09-10T22:06:14.486Z,5.63
2022-09-10T22:08:43.744Z,5.95
2022-09-10T22:11:23.912Z,5.80
2022-09-10T22:13:52.614Z,6.30
2022-09-10T22:16:20.404Z,5.93
2022-09-10T22:18:47.354Z,4.45
2022-09-10T22:21:14.237Z,4.97
2022-09-10T22:23:40.806Z,4.88
2022-09-10T22:26:11.147Z,5.28
2022-09-10T22:28:38.425Z,5.53
2022-09-10T22:31:29.413Z,5.03
2022-09-10T22:34:01.507Z,4.45
2022-09-10T22:36:36.558Z,5.57
2022-09-10T22:39:06.832Z,5.07
2022-09-10T22:41:35.299Z,5.00
2022-09-10T22:44:03.418Z,4.93
2022-09-10T22:46:30.402Z,4.75
2022-09-10T22:48:56.881Z,4.78
2022-09-10T22:51:28.772Z,5.55
2022-09-10T22:53:56.618Z,5.55
2022-09-10T22:56:26.211Z,5.60
2022-09-10T22:58:54.161Z,5.22
2022-09-10T23:01:23.067Z,6.35
2022-09-10T23:03:50.194Z,6.70
2022-09-10T23:06:19.806Z,5.97
2022-09-10T23:08:48.725Z,6.78
2022-09-10T23:11:23.843Z,5.80
2022-09-10T23:13:52.894Z,6.93
2022-09-10T23:16:40.828Z,6.45
2022-09-10T23:19:11.243Z,6.30
2022-09-10T23:21:41.223Z,6.35
2022-09-10T23:24:08.023Z,6.05
2022-09-10T23:26:34.403Z,6.22
2022-09-10T23:29:04.066Z,6.00
2022-09-10T23:31:32.833Z,5.90
2022-09-10T23:34:05.355Z,6.65
2022-09-10T23:36:34.807Z,6.28
2022-09-10T23:39:03.504Z,6.32
2022-09-10T23:41:29.979Z,5.78
2022-09-10T23:43:57.104Z,6.18
2022-09-10T23:46:23.789Z,6.00
2022-09-10T23:48:50.227Z,7.07
2022-09-10T23:51:19.494Z,7.35
2022-09-10T23:53:47.991Z,6.15
2022-09-10T23:56:16.790Z,6.82
2022-09-10T23:58:43.198Z,6.80
